sensor_id;sensor_type;location;lat;lon;timestamp;P1;durP1;ratioP1;P2;durP2;ratioP2
78458;SDS011;67753;42.684;23.330;2023-02-18T00:00:56;37.13;;;25.00;;
78458;SDS011;67753;42.684;23.330;2023-02-18T00:02:58;41.10;;;28.17;;
78458;SDS011;67753;42.684;23.330;2023-02-18T00:05:00;58.30;;;39.00;;
78458;SDS011;67753;42.684;23.330;2023-02-18T00:07:04;48.93;;;30.80;;
78458;SDS011;67753;42.684;23.330;2023-02-18T00:09:06;46.57;;;28.90;;
78458;SDS011;67753;42.684;23.330;2023-02-18T00:11:08;39.80;;;26.97;;
78458;SDS011;67753;42.684;23.330;2023-02-18T00:13:11;43.30;;;29.47;;
78458;SDS011;67753;42.684;23.330;2023-02-18T00:15:13;69.37;;;47.63;;
78458;SDS011;67753;42.684;23.330;2023-02-18T00:17:15;34.60;;;26.03;;
78458;SDS011;67753;42.684;23.330;2023-02-18T00:19:18;63.73;;;44.50;;
78458;SDS011;67753;42.684;23.330;2023-02-18T00:21:22;37.87;;;27.17;;
78458;SDS011;67753;42.684;23.330;2023-02-18T00:23:26;29.50;;;21.50;;
78458;SDS011;67753;42.684;23.330;2023-02-18T00:25:28;29.27;;;22.47;;
78458;SDS011;67753;42.684;23.330;2023-02-18T00:27:33;33.37;;;23.90;;
78458;SDS011;67753;42.684;23.330;2023-02-18T00:29:35;29.10;;;21.33;;
78458;SDS011;67753;42.684;23.330;2023-02-18T00:31:37;57.87;;;40.33;;
78458;SDS011;67753;42.684;23.330;2023-02-18T00:33:39;172.77;;;108.47;;
78458;SDS011;67753;42.684;23.330;2023-02-18T00:35:43;57.57;;;38.60;;
78458;SDS011;67753;42.684;23.330;2023-02-18T00:37:45;40.57;;;27.87;;
78458;SDS011;67753;42.684;23.330;2023-02-18T00:39:49;44.43;;;26.97;;
78458;SDS011;67753;42.684;23.330;2023-02-18T00:41:51;50.83;;;28.20;;
78458;SDS011;67753;42.684;23.330;2023-02-18T00:43:55;45.23;;;28.13;;
78458;SDS011;67753;42.684;23.330;2023-02-18T00:45:57;44.10;;;26.47;;
78458;SDS011;67753;42.684;23.330;2023-02-18T00:48:01;35.17;;;23.43;;
78458;SDS011;67753;42.684;23.330;2023-02-18T00:50:03;34.47;;;24.60;;
78458;SDS011;67753;42.684;23.330;2023-02-18T00:52:06;31.30;;;22.40;;
78458;SDS011;67753;42.684;23.330;2023-02-18T00:54:08;33.80;;;23.60;;
78458;SDS011;67753;42.684;23.330;2023-02-18T00:56:11;52.50;;;31.47;;
78458;SDS011;67753;42.684;23.330;2023-02-18T00:58:14;38.60;;;25.00;;
78458;SDS011;67753;42.684;23.330;2023-02-18T01:00:17;27.70;;;20.27;;
78458;SDS011;67753;42.684;23.330;2023-02-18T01:02:19;24.37;;;18.73;;
78458;SDS011;67753;42.684;23.330;2023-02-18T01:04:21;24.10;;;20.10;;
78458;SDS011;67753;42.684;23.330;2023-02-18T01:06:23;24.57;;;18.47;;
78458;SDS011;67753;42.684;23.330;2023-02-18T01:08:25;22.80;;;18.73;;
78458;SDS011;67753;42.684;23.330;2023-02-18T01:10:27;26.83;;;19.93;;
78458;SDS011;67753;42.684;23.330;2023-02-18T01:12:30;26.50;;;19.83;;
78458;SDS011;67753;42.684;23.330;2023-02-18T01:14:33;24.47;;;19.57;;
78458;SDS011;67753;42.684;23.330;2023-02-18T01:16:34;29.10;;;19.73;;
78458;SDS011;67753;42.684;23.330;2023-02-18T01:18:36;26.10;;;19.27;;
78458;SDS011;67753;42.684;23.330;2023-02-18T01:20:39;21.20;;;17.73;;
78458;SDS011;67753;42.684;23.330;2023-02-18T01:22:42;20.07;;;15.63;;
78458;SDS011;67753;42.684;23.330;2023-02-18T01:24:44;17.80;;;14.97;;
78458;SDS011;67753;42.684;23.330;2023-02-18T01:26:46;20.17;;;16.80;;
78458;SDS011;67753;42.684;23.330;2023-02-18T01:28:49;25.33;;;19.00;;
78458;SDS011;67753;42.684;23.330;2023-02-18T01:30:52;30.63;;;20.00;;
78458;SDS011;67753;42.684;23.330;2023-02-18T01:32:54;35.57;;;23.03;;
78458;SDS011;67753;42.684;23.330;2023-02-18T01:34:59;36.10;;;24.90;;
78458;SDS011;67753;42.684;23.330;2023-02-18T01:37:01;40.63;;;26.57;;
78458;SDS011;67753;42.684;23.330;2023-02-18T01:39:03;28.77;;;20.73;;
78458;SDS011;67753;42.684;23.330;2023-02-18T01:41:05;27.73;;;20.57;;
78458;SDS011;67753;42.684;23.330;2023-02-18T01:43:08;45.40;;;32.10;;
78458;SDS011;67753;42.684;23.330;2023-02-18T01:48:08;33.47;;;24.63;;
78458;SDS011;67753;42.684;23.330;2023-02-18T01:50:12;33.77;;;22.33;;
78458;SDS011;67753;42.684;23.330;2023-02-18T01:52:14;29.10;;;21.40;;
78458;SDS011;67753;42.684;23.330;2023-02-18T01:54:21;37.13;;;24.33;;
78458;SDS011;67753;42.684;23.330;2023-02-18T01:56:28;25.90;;;20.47;;
78458;SDS011;67753;42.684;23.330;2023-02-18T01:58:34;32.93;;;21.00;;
78458;SDS011;67753;42.684;23.330;2023-02-18T02:00:37;34.57;;;24.27;;
78458;SDS011;67753;42.684;23.330;2023-02-18T02:02:39;31.77;;;21.47;;
78458;SDS011;67753;42.684;23.330;2023-02-18T02:04:47;26.67;;;20.20;;
78458;SDS011;67753;42.684;23.330;2023-02-18T02:06:50;27.17;;;20.20;;
78458;SDS011;67753;42.684;23.330;2023-02-18T02:08:52;37.20;;;26.10;;
78458;SDS011;67753;42.684;23.330;2023-02-18T02:11:06;22.10;;;16.97;;
78458;SDS011;67753;42.684;23.330;2023-02-18T02:13:18;23.60;;;17.50;;
78458;SDS011;67753;42.684;23.330;2023-02-18T02:15:33;19.37;;;16.23;;
78458;SDS011;67753;42.684;23.330;2023-02-18T02:17:42;20.17;;;14.57;;
78458;SDS011;67753;42.684;23.330;2023-02-18T02:25:33;25.80;;;20.13;;
78458;SDS011;67753;42.684;23.330;2023-02-18T02:28:05;23.30;;;17.60;;
78458;SDS011;67753;42.684;23.330;2023-02-18T02:32:59;21.73;;;18.30;;
78458;SDS011;67753;42.684;23.330;2023-02-18T02:35:34;23.80;;;18.63;;
78458;SDS011;67753;42.684;23.330;2023-02-18T02:37:40;21.03;;;17.00;;
78458;SDS011;67753;42.684;23.330;2023-02-18T02:39:52;23.67;;;17.53;;
78458;SDS011;67753;42.684;23.330;2023-02-18T02:42:03;22.57;;;18.13;;
78458;SDS011;67753;42.684;23.330;2023-02-18T02:44:11;25.77;;;16.27;;
78458;SDS011;67753;42.684;23.330;2023-02-18T02:46:20;22.03;;;17.60;;
78458;SDS011;67753;42.684;23.330;2023-02-18T02:48:31;23.93;;;18.03;;
78458;SDS011;67753;42.684;23.330;2023-02-18T02:50:42;22.47;;;17.80;;
78458;SDS011;67753;42.684;23.330;2023-02-18T02:52:47;23.67;;;16.83;;
78458;SDS011;67753;42.684;23.330;2023-02-18T02:54:52;20.03;;;16.33;;
78458;SDS011;67753;42.684;23.330;2023-02-18T02:57:04;20.57;;;15.23;;
78458;SDS011;67753;42.684;23.330;2023-02-18T02:59:11;20.00;;;15.93;;
78458;SDS011;67753;42.684;23.330;2023-02-18T03:01:25;19.60;;;15.40;;
78458;SDS011;67753;42.684;23.330;2023-02-18T03:03:41;19.47;;;14.67;;
78458;SDS011;67753;42.684;23.330;2023-02-18T03:06:01;17.17;;;15.00;;
78458;SDS011;67753;42.684;23.330;2023-02-18T03:08:19;15.17;;;13.57;;
78458;SDS011;67753;42.684;23.330;2023-02-18T03:10:37;16.43;;;14.10;;
78458;SDS011;67753;42.684;23.330;2023-02-18T03:12:48;18.67;;;13.80;;
78458;SDS011;67753;42.684;23.330;2023-02-18T03:15:00;16.87;;;14.03;;
78458;SDS011;67753;42.684;23.330;2023-02-18T03:17:10;16.07;;;13.57;;
78458;SDS011;67753;42.684;23.330;2023-02-18T03:19:18;16.20;;;14.50;;
78458;SDS011;67753;42.684;23.330;2023-02-18T03:21:26;18.57;;;14.33;;
78458;SDS011;67753;42.684;23.330;2023-02-18T03:23:33;17.10;;;15.17;;
78458;SDS011;67753;42.684;23.330;2023-02-18T03:25:39;19.57;;;15.43;;
78458;SDS011;67753;42.684;23.330;2023-02-18T03:27:43;18.97;;;14.93;;
78458;SDS011;67753;42.684;23.330;2023-02-18T03:29:51;19.83;;;14.80;;
78458;SDS011;67753;42.684;23.330;2023-02-18T03:32:01;17.23;;;14.47;;
78458;SDS011;67753;42.684;23.330;2023-02-18T03:34:10;18.10;;;13.67;;
78458;SDS011;67753;42.684;23.330;2023-02-18T03:36:16;17.53;;;14.40;;
78458;SDS011;67753;42.684;23.330;2023-02-18T03:38:22;17.50;;;14.60;;
78458;SDS011;67753;42.684;23.330;2023-02-18T03:40:29;22.27;;;16.83;;
78458;SDS011;67753;42.684;23.330;2023-02-18T03:42:32;21.90;;;17.10;;
78458;SDS011;67753;42.684;23.330;2023-02-18T03:44:34;27.67;;;19.63;;
78458;SDS011;67753;42.684;23.330;2023-02-18T03:46:36;28.47;;;21.23;;
78458;SDS011;67753;42.684;23.330;2023-02-18T03:48:42;28.07;;;22.37;;
78458;SDS011;67753;42.684;23.330;2023-02-18T03:50:44;29.57;;;22.67;;
78458;SDS011;67753;42.684;23.330;2023-02-18T03:52:46;28.60;;;22.50;;
78458;SDS011;67753;42.684;23.330;2023-02-18T03:54:51;30.17;;;23.07;;
78458;SDS011;67753;42.684;23.330;2023-02-18T03:56:53;26.43;;;21.60;;
78458;SDS011;67753;42.684;23.330;2023-02-18T03:58:55;29.50;;;23.13;;
78458;SDS011;67753;42.684;23.330;2023-02-18T04:00:57;27.30;;;22.67;;
78458;SDS011;67753;42.684;23.330;2023-02-18T04:02:59;29.30;;;23.80;;
78458;SDS011;67753;42.684;23.330;2023-02-18T04:05:03;29.33;;;21.90;;
78458;SDS011;67753;42.684;23.330;2023-02-18T04:07:06;28.57;;;22.23;;
78458;SDS011;67753;42.684;23.330;2023-02-18T04:09:08;26.70;;;23.20;;
78458;SDS011;67753;42.684;23.330;2023-02-18T04:11:12;23.90;;;20.00;;
78458;SDS011;67753;42.684;23.330;2023-02-18T04:13:14;27.43;;;21.30;;
78458;SDS011;67753;42.684;23.330;2023-02-18T04:15:17;28.37;;;22.50;;
78458;SDS011;67753;42.684;23.330;2023-02-18T04:17:20;28.20;;;20.73;;
78458;SDS011;67753;42.684;23.330;2023-02-18T04:19:22;27.03;;;19.47;;
78458;SDS011;67753;42.684;23.330;2023-02-18T04:21:24;27.10;;;20.40;;
78458;SDS011;67753;42.684;23.330;2023-02-18T04:23:26;24.27;;;20.03;;
78458;SDS011;67753;42.684;23.330;2023-02-18T04:25:28;26.50;;;19.93;;
78458;SDS011;67753;42.684;23.330;2023-02-18T04:27:32;25.90;;;19.67;;
78458;SDS011;67753;42.684;23.330;2023-02-18T04:29:34;25.60;;;20.07;;
78458;SDS011;67753;42.684;23.330;2023-02-18T04:31:36;21.97;;;19.57;;
78458;SDS011;67753;42.684;23.330;2023-02-18T04:33:38;22.80;;;18.43;;
78458;SDS011;67753;42.684;23.330;2023-02-18T04:35:40;22.33;;;17.17;;
78458;SDS011;67753;42.684;23.330;2023-02-18T04:37:42;22.83;;;18.90;;
78458;SDS011;67753;42.684;23.330;2023-02-18T04:39:44;23.77;;;18.87;;
78458;SDS011;67753;42.684;23.330;2023-02-18T04:41:46;25.07;;;18.50;;
78458;SDS011;67753;42.684;23.330;2023-02-18T04:43:49;24.10;;;18.90;;
78458;SDS011;67753;42.684;23.330;2023-02-18T04:45:51;25.70;;;18.70;;
78458;SDS011;67753;42.684;23.330;2023-02-18T04:47:53;22.77;;;18.87;;
78458;SDS011;67753;42.684;23.330;2023-02-18T04:49:54;26.63;;;19.27;;
78458;SDS011;67753;42.684;23.330;2023-02-18T04:51:56;24.93;;;19.07;;
78458;SDS011;67753;42.684;23.330;2023-02-18T04:53:58;23.97;;;18.93;;
78458;SDS011;67753;42.684;23.330;2023-02-18T04:56:02;22.83;;;19.33;;
78458;SDS011;67753;42.684;23.330;2023-02-18T04:58:04;23.43;;;19.37;;
78458;SDS011;67753;42.684;23.330;2023-02-18T05:00:09;26.20;;;21.23;;
78458;SDS011;67753;42.684;23.330;2023-02-18T05:02:16;23.40;;;20.37;;
78458;SDS011;67753;42.684;23.330;2023-02-18T05:04:19;27.93;;;20.90;;
78458;SDS011;67753;42.684;23.330;2023-02-18T05:06:21;24.97;;;20.37;;
78458;SDS011;67753;42.684;23.330;2023-02-18T05:08:23;28.83;;;22.00;;
78458;SDS011;67753;42.684;23.330;2023-02-18T05:10:26;29.90;;;21.50;;
78458;SDS011;67753;42.684;23.330;2023-02-18T05:12:28;25.33;;;19.67;;
78458;SDS011;67753;42.684;23.330;2023-02-18T05:14:30;27.20;;;21.63;;
78458;SDS011;67753;42.684;23.330;2023-02-18T05:16:33;24.93;;;21.47;;
78458;SDS011;67753;42.684;23.330;2023-02-18T05:18:35;28.80;;;22.60;;
78458;SDS011;67753;42.684;23.330;2023-02-18T05:20:37;26.10;;;21.40;;
78458;SDS011;67753;42.684;23.330;2023-02-18T05:22:40;24.03;;;20.03;;
78458;SDS011;67753;42.684;23.330;2023-02-18T05:24:42;21.37;;;18.67;;
78458;SDS011;67753;42.684;23.330;2023-02-18T05:26:44;20.73;;;17.93;;
78458;SDS011;67753;42.684;23.330;2023-02-18T05:28:45;24.60;;;18.00;;
78458;SDS011;67753;42.684;23.330;2023-02-18T05:30:48;19.03;;;15.40;;
78458;SDS011;67753;42.684;23.330;2023-02-18T05:32:51;20.07;;;16.23;;
78458;SDS011;67753;42.684;23.330;2023-02-18T05:34:53;18.63;;;15.70;;
78458;SDS011;67753;42.684;23.330;2023-02-18T05:36:55;21.93;;;17.03;;
78458;SDS011;67753;42.684;23.330;2023-02-18T05:38:57;20.00;;;16.33;;
78458;SDS011;67753;42.684;23.330;2023-02-18T05:40:59;21.23;;;16.87;;
78458;SDS011;67753;42.684;23.330;2023-02-18T05:43:01;27.53;;;18.77;;
78458;SDS011;67753;42.684;23.330;2023-02-18T05:45:03;26.63;;;18.87;;
78458;SDS011;67753;42.684;23.330;2023-02-18T05:47:05;23.90;;;17.57;;
78458;SDS011;67753;42.684;23.330;2023-02-18T05:49:10;21.67;;;17.53;;
78458;SDS011;67753;42.684;23.330;2023-02-18T05:51:13;27.00;;;17.60;;
78458;SDS011;67753;42.684;23.330;2023-02-18T05:53:15;20.13;;;16.13;;
78458;SDS011;67753;42.684;23.330;2023-02-18T05:55:17;20.27;;;16.87;;
78458;SDS011;67753;42.684;23.330;2023-02-18T05:57:20;19.20;;;16.60;;
78458;SDS011;67753;42.684;23.330;2023-02-18T05:59:22;21.40;;;16.43;;
78458;SDS011;67753;42.684;23.330;2023-02-18T06:01:24;20.40;;;17.17;;
78458;SDS011;67753;42.684;23.330;2023-02-18T06:03:26;26.83;;;17.80;;
78458;SDS011;67753;42.684;23.330;2023-02-18T06:05:30;21.47;;;17.10;;
78458;SDS011;67753;42.684;23.330;2023-02-18T06:07:32;24.23;;;17.07;;
78458;SDS011;67753;42.684;23.330;2023-02-18T06:09:34;18.83;;;16.47;;
78458;SDS011;67753;42.684;23.330;2023-02-18T06:11:36;22.53;;;17.43;;
78458;SDS011;67753;42.684;23.330;2023-02-18T06:13:38;21.10;;;17.33;;
78458;SDS011;67753;42.684;23.330;2023-02-18T06:15:40;18.00;;;14.93;;
78458;SDS011;67753;42.684;23.330;2023-02-18T06:17:42;19.60;;;15.77;;
78458;SDS011;67753;42.684;23.330;2023-02-18T06:19:44;19.90;;;15.77;;
78458;SDS011;67753;42.684;23.330;2023-02-18T06:21:48;20.40;;;16.40;;
78458;SDS011;67753;42.684;23.330;2023-02-18T06:23:50;19.33;;;16.40;;
78458;SDS011;67753;42.684;23.330;2023-02-18T06:25:52;17.77;;;15.80;;
78458;SDS011;67753;42.684;23.330;2023-02-18T06:27:54;20.93;;;17.57;;
78458;SDS011;67753;42.684;23.330;2023-02-18T06:29:56;20.47;;;16.07;;
78458;SDS011;67753;42.684;23.330;2023-02-18T06:31:58;22.67;;;17.33;;
78458;SDS011;67753;42.684;23.330;2023-02-18T06:34:00;22.77;;;18.90;;
78458;SDS011;67753;42.684;23.330;2023-02-18T06:36:03;24.53;;;19.80;;
78458;SDS011;67753;42.684;23.330;2023-02-18T06:38:08;25.47;;;20.40;;
78458;SDS011;67753;42.684;23.330;2023-02-18T06:40:10;23.67;;;16.67;;
78458;SDS011;67753;42.684;23.330;2023-02-18T06:42:13;18.47;;;15.67;;
78458;SDS011;67753;42.684;23.330;2023-02-18T06:44:15;22.53;;;16.50;;
78458;SDS011;67753;42.684;23.330;2023-02-18T06:46:17;23.30;;;16.53;;
78458;SDS011;67753;42.684;23.330;2023-02-18T06:48:19;23.33;;;16.80;;
78458;SDS011;67753;42.684;23.330;2023-02-18T06:50:22;20.10;;;15.33;;
78458;SDS011;67753;42.684;23.330;2023-02-18T06:52:24;19.97;;;16.57;;
78458;SDS011;67753;42.684;23.330;2023-02-18T06:54:27;20.70;;;16.07;;
78458;SDS011;67753;42.684;23.330;2023-02-18T06:56:29;24.03;;;16.13;;
78458;SDS011;67753;42.684;23.330;2023-02-18T06:58:31;23.23;;;16.93;;
78458;SDS011;67753;42.684;23.330;2023-02-18T07:00:37;21.63;;;16.50;;
78458;SDS011;67753;42.684;23.330;2023-02-18T07:02:39;22.90;;;16.20;;
78458;SDS011;67753;42.684;23.330;2023-02-18T07:04:44;23.50;;;17.13;;
78458;SDS011;67753;42.684;23.330;2023-02-18T07:06:46;24.30;;;16.20;;
78458;SDS011;67753;42.684;23.330;2023-02-18T07:08:48;22.53;;;16.17;;
78458;SDS011;67753;42.684;23.330;2023-02-18T07:10:51;18.47;;;15.33;;
78458;SDS011;67753;42.684;23.330;2023-02-18T07:12:53;18.17;;;15.20;;
78458;SDS011;67753;42.684;23.330;2023-02-18T07:14:55;20.80;;;14.93;;
78458;SDS011;67753;42.684;23.330;2023-02-18T07:16:57;17.70;;;14.63;;
78458;SDS011;67753;42.684;23.330;2023-02-18T07:18:59;23.03;;;14.63;;
78458;SDS011;67753;42.684;23.330;2023-02-18T07:21:01;16.77;;;14.80;;
78458;SDS011;67753;42.684;23.330;2023-02-18T07:23:03;19.13;;;14.47;;
78458;SDS011;67753;42.684;23.330;2023-02-18T07:25:06;20.53;;;15.17;;
78458;SDS011;67753;42.684;23.330;2023-02-18T07:27:09;23.57;;;15.77;;
78458;SDS011;67753;42.684;23.330;2023-02-18T07:29:11;24.73;;;16.13;;
78458;SDS011;67753;42.684;23.330;2023-02-18T07:31:13;24.90;;;15.67;;
78458;SDS011;67753;42.684;23.330;2023-02-18T07:33:15;19.57;;;16.07;;
78458;SDS011;67753;42.684;23.330;2023-02-18T07:35:17;20.77;;;15.43;;
78458;SDS011;67753;42.684;23.330;2023-02-18T07:37:20;23.83;;;16.73;;
78458;SDS011;67753;42.684;23.330;2023-02-18T07:39:22;24.17;;;16.27;;
78458;SDS011;67753;42.684;23.330;2023-02-18T07:41:24;21.33;;;16.07;;
78458;SDS011;67753;42.684;23.330;2023-02-18T07:43:27;25.77;;;16.07;;
78458;SDS011;67753;42.684;23.330;2023-02-18T07:45:29;25.17;;;18.97;;
78458;SDS011;67753;42.684;23.330;2023-02-18T07:47:31;25.13;;;20.23;;
78458;SDS011;67753;42.684;23.330;2023-02-18T07:49:34;27.47;;;22.60;;
78458;SDS011;67753;42.684;23.330;2023-02-18T07:51:36;26.97;;;23.90;;
78458;SDS011;67753;42.684;23.330;2023-02-18T07:53:39;31.10;;;24.07;;
78458;SDS011;67753;42.684;23.330;2023-02-18T07:55:41;29.53;;;23.57;;
78458;SDS011;67753;42.684;23.330;2023-02-18T07:57:49;29.23;;;23.33;;
78458;SDS011;67753;42.684;23.330;2023-02-18T08:00:02;29.83;;;24.43;;
78458;SDS011;67753;42.684;23.330;2023-02-18T08:02:05;24.37;;;18.80;;
78458;SDS011;67753;42.684;23.330;2023-02-18T08:04:07;26.27;;;19.97;;
78458;SDS011;67753;42.684;23.330;2023-02-18T08:06:13;24.00;;;19.07;;
78458;SDS011;67753;42.684;23.330;2023-02-18T08:08:23;21.43;;;17.77;;
78458;SDS011;67753;42.684;23.330;2023-02-18T08:10:27;19.53;;;16.47;;
78458;SDS011;67753;42.684;23.330;2023-02-18T08:12:29;19.67;;;15.47;;
78458;SDS011;67753;42.684;23.330;2023-02-18T08:14:31;19.50;;;15.90;;
78458;SDS011;67753;42.684;23.330;2023-02-18T08:16:35;19.47;;;16.83;;
78458;SDS011;67753;42.684;23.330;2023-02-18T08:18:40;19.27;;;15.97;;
78458;SDS011;67753;42.684;23.330;2023-02-18T08:20:48;23.47;;;16.10;;
78458;SDS011;67753;42.684;23.330;2023-02-18T08:22:52;21.00;;;17.53;;
78458;SDS011;67753;42.684;23.330;2023-02-18T08:24:54;20.93;;;15.07;;
78458;SDS011;67753;42.684;23.330;2023-02-18T08:26:56;20.57;;;16.70;;
78458;SDS011;67753;42.684;23.330;2023-02-18T08:28:59;19.90;;;15.43;;
78458;SDS011;67753;42.684;23.330;2023-02-18T08:31:01;18.17;;;15.80;;
78458;SDS011;67753;42.684;23.330;2023-02-18T08:33:05;23.73;;;17.60;;
78458;SDS011;67753;42.684;23.330;2023-02-18T08:35:07;20.57;;;17.37;;
78458;SDS011;67753;42.684;23.330;2023-02-18T08:37:13;41.60;;;31.83;;
78458;SDS011;67753;42.684;23.330;2023-02-18T08:39:15;29.17;;;24.60;;
78458;SDS011;67753;42.684;23.330;2023-02-18T08:41:17;26.17;;;19.90;;
78458;SDS011;67753;42.684;23.330;2023-02-18T08:43:20;22.63;;;17.03;;
78458;SDS011;67753;42.684;23.330;2023-02-18T08:45:22;19.63;;;17.07;;
78458;SDS011;67753;42.684;23.330;2023-02-18T08:47:24;23.20;;;18.03;;
78458;SDS011;67753;42.684;23.330;2023-02-18T08:49:27;26.30;;;20.30;;
78458;SDS011;67753;42.684;23.330;2023-02-18T08:51:29;24.33;;;18.20;;
78458;SDS011;67753;42.684;23.330;2023-02-18T08:53:31;28.03;;;21.97;;
78458;SDS011;67753;42.684;23.330;2023-02-18T08:55:33;33.60;;;26.97;;
78458;SDS011;67753;42.684;23.330;2023-02-18T08:57:37;23.60;;;18.30;;
78458;SDS011;67753;42.684;23.330;2023-02-18T08:59:39;58.27;;;43.57;;
78458;SDS011;67753;42.684;23.330;2023-02-18T09:01:40;51.40;;;40.23;;
78458;SDS011;67753;42.684;23.330;2023-02-18T09:03:42;32.90;;;26.67;;
78458;SDS011;67753;42.684;23.330;2023-02-18T09:05:46;39.83;;;34.03;;
78458;SDS011;67753;42.684;23.330;2023-02-18T09:07:48;29.57;;;25.50;;
78458;SDS011;67753;42.684;23.330;2023-02-18T09:09:49;22.23;;;18.30;;
78458;SDS011;67753;42.684;23.330;2023-02-18T09:11:51;21.70;;;17.13;;
78458;SDS011;67753;42.684;23.330;2023-02-18T09:13:53;21.80;;;17.23;;
78458;SDS011;67753;42.684;23.330;2023-02-18T09:15:56;21.60;;;16.23;;
78458;SDS011;67753;42.684;23.330;2023-02-18T09:18:00;25.20;;;19.03;;
78458;SDS011;67753;42.684;23.330;2023-02-18T09:20:02;32.07;;;18.87;;
78458;SDS011;67753;42.684;23.330;2023-02-18T09:24:53;23.07;;;17.80;;
78458;SDS011;67753;42.684;23.330;2023-02-18T09:26:54;20.30;;;15.77;;
78458;SDS011;67753;42.684;23.330;2023-02-18T09:28:57;21.97;;;17.57;;
78458;SDS011;67753;42.684;23.330;2023-02-18T09:31:02;26.30;;;16.47;;
78458;SDS011;67753;42.684;23.330;2023-02-18T09:33:05;19.80;;;16.90;;
78458;SDS011;67753;42.684;23.330;2023-02-18T09:35:11;18.23;;;15.93;;
78458;SDS011;67753;42.684;23.330;2023-02-18T09:37:13;19.20;;;15.47;;
78458;SDS011;67753;42.684;23.330;2023-02-18T09:39:16;20.97;;;15.77;;
78458;SDS011;67753;42.684;23.330;2023-02-18T09:41:26;18.73;;;16.03;;
78458;SDS011;67753;42.684;23.330;2023-02-18T09:43:34;21.93;;;15.93;;
78458;SDS011;67753;42.684;23.330;2023-02-18T09:45:41;18.23;;;16.27;;
78458;SDS011;67753;42.684;23.330;2023-02-18T09:47:44;18.70;;;16.17;;
78458;SDS011;67753;42.684;23.330;2023-02-18T09:49:48;22.50;;;16.83;;
78458;SDS011;67753;42.684;23.330;2023-02-18T09:51:55;21.40;;;16.67;;
78458;SDS011;67753;42.684;23.330;2023-02-18T09:54:01;22.50;;;17.63;;
78458;SDS011;67753;42.684;23.330;2023-02-18T09:56:03;20.47;;;16.57;;
78458;SDS011;67753;42.684;23.330;2023-02-18T09:58:10;23.20;;;16.47;;
78458;SDS011;67753;42.684;23.330;2023-02-18T10:00:19;17.60;;;15.80;;
78458;SDS011;67753;42.684;23.330;2023-02-18T10:02:23;19.30;;;16.10;;
78458;SDS011;67753;42.684;23.330;2023-02-18T10:04:26;20.00;;;15.80;;
78458;SDS011;67753;42.684;23.330;2023-02-18T10:06:37;19.00;;;15.13;;
78458;SDS011;67753;42.684;23.330;2023-02-18T10:08:41;19.50;;;16.17;;
78458;SDS011;67753;42.684;23.330;2023-02-18T10:10:45;17.17;;;14.93;;
78458;SDS011;67753;42.684;23.330;2023-02-18T10:12:48;20.50;;;15.27;;
78458;SDS011;67753;42.684;23.330;2023-02-18T10:14:53;18.63;;;13.63;;
78458;SDS011;67753;42.684;23.330;2023-02-18T10:16:57;22.43;;;13.97;;
78458;SDS011;67753;42.684;23.330;2023-02-18T10:19:08;15.97;;;13.83;;
78458;SDS011;67753;42.684;23.330;2023-02-18T10:21:23;20.00;;;13.50;;
78458;SDS011;67753;42.684;23.330;2023-02-18T10:23:26;17.53;;;13.50;;
78458;SDS011;67753;42.684;23.330;2023-02-18T10:25:30;13.70;;;12.30;;
78458;SDS011;67753;42.684;23.330;2023-02-18T10:27:39;16.17;;;12.80;;
78458;SDS011;67753;42.684;23.330;2023-02-18T10:29:41;15.73;;;12.73;;
78458;SDS011;67753;42.684;23.330;2023-02-18T10:31:45;13.77;;;12.37;;
78458;SDS011;67753;42.684;23.330;2023-02-18T10:34:56;13.47;;;11.50;;
78458;SDS011;67753;42.684;23.330;2023-02-18T10:37:04;17.70;;;11.57;;
78458;SDS011;67753;42.684;23.330;2023-02-18T10:41:48;10.63;;;9.53;;
78458;SDS011;67753;42.684;23.330;2023-02-18T10:43:58;8.90;;;8.10;;
78458;SDS011;67753;42.684;23.330;2023-02-18T10:46:12;10.27;;;8.00;;
78458;SDS011;67753;42.684;23.330;2023-02-18T10:50:55;17.70;;;14.40;;
78458;SDS011;67753;42.684;23.330;2023-02-18T10:53:01;18.13;;;14.17;;
78458;SDS011;67753;42.684;23.330;2023-02-18T10:55:09;16.93;;;13.97;;
78458;SDS011;67753;42.684;23.330;2023-02-18T10:57:16;15.13;;;13.53;;
78458;SDS011;67753;42.684;23.330;2023-02-18T10:59:20;11.97;;;10.37;;
78458;SDS011;67753;42.684;23.330;2023-02-18T11:01:24;10.27;;;8.67;;
78458;SDS011;67753;42.684;23.330;2023-02-18T11:03:35;8.10;;;7.30;;
78458;SDS011;67753;42.684;23.330;2023-02-18T11:05:42;9.30;;;7.87;;
78458;SDS011;67753;42.684;23.330;2023-02-18T11:07:49;8.77;;;7.37;;
78458;SDS011;67753;42.684;23.330;2023-02-18T11:09:52;9.63;;;7.80;;
78458;SDS011;67753;42.684;23.330;2023-02-18T11:12:02;9.57;;;8.33;;
78458;SDS011;67753;42.684;23.330;2023-02-18T11:14:08;10.50;;;7.93;;
78458;SDS011;67753;42.684;23.330;2023-02-18T11:16:16;9.43;;;7.43;;
78458;SDS011;67753;42.684;23.330;2023-02-18T11:18:26;8.57;;;6.60;;
78458;SDS011;67753;42.684;23.330;2023-02-18T11:20:33;8.27;;;5.90;;
78458;SDS011;67753;42.684;23.330;2023-02-18T11:22:37;8.13;;;6.47;;
78458;SDS011;67753;42.684;23.330;2023-02-18T11:24:42;6.93;;;5.77;;
78458;SDS011;67753;42.684;23.330;2023-02-18T11:26:47;12.97;;;6.63;;
78458;SDS011;67753;42.684;23.330;2023-02-18T11:28:51;9.53;;;5.40;;
78458;SDS011;67753;42.684;23.330;2023-02-18T11:31:00;7.50;;;5.77;;
78458;SDS011;67753;42.684;23.330;2023-02-18T11:33:05;6.23;;;5.30;;
78458;SDS011;67753;42.684;23.330;2023-02-18T11:35:15;6.67;;;5.73;;
78458;SDS011;67753;42.684;23.330;2023-02-18T11:37:19;7.93;;;6.27;;
78458;SDS011;67753;42.684;23.330;2023-02-18T11:39:23;7.40;;;5.87;;
78458;SDS011;67753;42.684;23.330;2023-02-18T11:41:30;7.40;;;6.27;;
78458;SDS011;67753;42.684;23.330;2023-02-18T11:43:36;6.90;;;6.07;;
78458;SDS011;67753;42.684;23.330;2023-02-18T11:45:43;6.53;;;5.83;;
78458;SDS011;67753;42.684;23.330;2023-02-18T11:47:45;8.57;;;6.73;;
78458;SDS011;67753;42.684;23.330;2023-02-18T11:50:03;8.97;;;5.97;;
78458;SDS011;67753;42.684;23.330;2023-02-18T11:52:17;7.33;;;6.40;;
78458;SDS011;67753;42.684;23.330;2023-02-18T11:54:22;7.00;;;6.30;;
78458;SDS011;67753;42.684;23.330;2023-02-18T11:56:26;7.27;;;6.07;;
78458;SDS011;67753;42.684;23.330;2023-02-18T11:58:33;8.47;;;6.33;;
78458;SDS011;67753;42.684;23.330;2023-02-18T12:00:39;7.30;;;5.90;;
78458;SDS011;67753;42.684;23.330;2023-02-18T12:02:43;7.73;;;4.10;;
78458;SDS011;67753;42.684;23.330;2023-02-18T12:04:46;3.53;;;3.23;;
78458;SDS011;67753;42.684;23.330;2023-02-18T12:06:53;6.67;;;4.70;;
78458;SDS011;67753;42.684;23.330;2023-02-18T12:09:08;5.73;;;5.20;;
78458;SDS011;67753;42.684;23.330;2023-02-18T12:11:22;7.45;;;5.82;;
78458;SDS011;67753;42.684;23.330;2023-02-18T12:13:32;8.50;;;6.87;;
78458;SDS011;67753;42.684;23.330;2023-02-18T12:15:40;8.40;;;6.35;;
78458;SDS011;67753;42.684;23.330;2023-02-18T12:18:09;7.80;;;5.68;;
78458;SDS011;67753;42.684;23.330;2023-02-18T12:20:35;8.03;;;6.20;;